• Join FlightAware (Why Join?)
  • Login
  • US Flag 
03:14AM EDT


 

Airport Tracker/Info


-or-


 

Live Flight TrackerFlight Track Log ✈ N230DS ✈ 23-Apr-2012 ✈ KPIH - KSLC

Flight Track Log - Related Links

Times and Time Zones

All times are in EDT time to prevent confusion due to time zone crossing. See the N230DS flight status page for this flight to view local times or setup timezone preferences in your user account.

Time Position Orientation Groundspeed Altitude Reporting Facility
EDT Latitude Longitude Course Direction KTS MPH feet Rate Location/Type
11:27PM 42.8717 -112.5841 10° North  Level FlightAware Approximate
11:28PM 42.8411 -112.5746 North  Level FlightAware Approximate
11:29PM 42.9258 -112.5706 44° Northeast 114 131 5,200  Level Salt Lake Center
11:30PM 42.9389 -112.5531 158° South 74 85 5,800 480 Climbing Salt Lake Center
11:31PM 42.9097 -112.5372 225° Southwest 87 100 6,200 540 Climbing Salt Lake Center
11:32PM 42.8908 -112.5633 194° South 100 115 7,000 660 Climbing Salt Lake Center
11:33PM 42.8622 -112.5733 187° South 97 112 7,600 480 Climbing Salt Lake Center
11:34PM 42.8375 -112.5775 187° South 95 109 8,100 540 Climbing Salt Lake Center
11:35PM 42.8125 -112.5819 186° South 95 109 8,700 540 Climbing Salt Lake Center
11:36PM 42.7856 -112.5856 189° South 91 105 9,300 480 Climbing Salt Lake Center
11:37PM 42.7625 -112.5906 192° South 89 102 9,700 300 Climbing Salt Lake Center
11:38PM 42.7353 -112.5983 187° South 89 102 10,000 120 Climbing Salt Lake Center
11:39PM 42.7053 -112.6036 161° South 103 119 10,000  Level Salt Lake Center
11:40PM 42.6728 -112.5883 166° South 114 131 10,000  Level Salt Lake Center
11:41PM 42.6408 -112.5778 170° South 116 133 10,000  Level Salt Lake Center
11:42PM 42.6097 -112.5700 169° South 114 131 10,000  Level Salt Lake Center
11:43PM 42.5789 -112.5619 167° South 112 129 10,000  Level Salt Lake Center
11:44PM 42.5478 -112.5522 167° South 113 130 10,000  Level Salt Lake Center
11:45PM 42.5167 -112.5422 167° South 114 131 10,000  Level Salt Lake Center
11:46PM 42.4856 -112.5328 166° South 113 130 10,000  Level Salt Lake Center
11:47PM 42.4544 -112.5222 169° South 114 131 10,000  Level Salt Lake Center
11:48PM 42.4236 -112.5142 168° South 113 130 10,000  Level Salt Lake Center
11:49PM 42.3917 -112.5050 168° South 115 132 10,000  Level Salt Lake Center
11:50PM 42.3594 -112.4961 167° South 116 133 10,000  Level Salt Lake Center
11:51PM 42.3219 -112.4847 168° South 117 135 10,000  Level Salt Lake Center
11:52PM 42.2886 -112.4756 168° South 119 137 10,000  Level Salt Lake Center
11:53PM 42.2556 -112.4658 166° South 120 138 10,000  Level Salt Lake Center
11:54PM 42.2233 -112.4550 170° South 119 137 10,000  Level Salt Lake Center
11:55PM 42.1911 -112.4472 164° South 118 136 10,000  Level Salt Lake Center
11:56PM 42.1600 -112.4356 162° South 116 133 10,000  Level Salt Lake Center
11:57PM 42.1275 -112.4214 166° South 118 136 10,000  Level Salt Lake Center
11:58PM 42.0944 -112.4103 164° South 120 138 10,000  Level Salt Lake Center
11:59PM 42.0614 -112.3975 164° South 121 139 10,000  Level Salt Lake Center
12:00AM 42.0292 -112.3853 168° South 121 139 10,000  Level Salt Lake Center
12:01AM 41.9947 -112.3756 163° South 122 140 10,000  Level Salt Lake Center
12:02AM 41.9617 -112.3619 167° South 123 142 10,000  Level Salt Lake Center
12:03AM 41.9286 -112.3517 163° South 122 140 10,000  Level Salt Lake Center
12:04AM 41.8917 -112.3367 164° South 120 138 10,000  Level Salt Lake Center
12:05AM 41.8589 -112.3244 149° Southeast 120 138 10,000  Level Salt Lake Center
12:06AM 41.8292 -112.3006 181° South 141 162 10,000  Level Salt Lake Center
12:07AM 41.7922 -112.3011 169° South 129 148 10,000  Level Salt Lake Center
12:08AM 41.7592 -112.2925 162° South 122 140 10,000  Level Salt Lake Center
12:09AM 41.7258 -112.2783 164° South 123 142 10,000  Level Salt Lake Center
12:10AM 41.6925 -112.2656 164° South 123 142 10,000  Level Salt Lake Center
12:11AM 41.6589 -112.2531 164° South 124 143 10,000  Level Salt Lake Center
12:13AM 41.6261 -112.2408 166° South 123 142 10,000  Level Salt Lake Center
12:14AM 41.5933 -112.2300 167° South 121 139 10,000  Level Salt Lake Center
12:15AM 41.5633 -112.2206 165° South 114 131 10,000  Level Salt Lake Center
12:16AM 41.5317 -112.2092 165° South 115 132 10,000 -240 Level Salt Lake Center
12:17AM 41.4986 -112.1969 165° South 121 139 9,600 -420 Descending Salt Lake Center
12:18AM 41.4569 -112.1817 159° South 130 150 9,200 -360 Descending Salt Lake Center
12:19AM 41.4239 -112.1650 165° South 130 150 9,000 -120 Descending Salt Lake Center
12:20AM 41.3914 -112.1531 166° South 119 137 9,000  Level Salt Lake Center
12:21AM 41.3617 -112.1433 168° South 115 132 9,000  Level Salt Lake Center
12:22AM 41.3297 -112.1342 169° South 113 130 9,000  Level Salt Lake Center
12:23AM 41.2983 -112.1258 161° South 110 127 9,000  Level Salt Lake Center
12:24AM 41.2719 -112.1139 152° Southeast 110 127 9,000  Level Salt Lake Center
12:25AM 41.2444 -112.0947 131° Southeast 113 130 9,000  Level Salt Lake Center
12:26AM 41.2231 -112.0619 133° Southeast 118 136 9,000  Level Salt Lake Center
12:27AM 41.2022 -112.0322 144° Southeast 115 132 9,000  Level Salt Lake Center
12:28AM 41.1758 -112.0069 144° Southeast 113 130 9,000  Level Salt Lake Center
12:29AM 41.1494 -111.9817 155° Southeast 111 128 9,000  Level Salt Lake Center
12:30AM 41.1167 -111.9614 179° South 115 132 9,000  Level Salt Lake Center
12:31AM 41.0936 -111.9608 177° South 107 123 9,000  Level Salt Lake Center
12:32AM 41.0653 -111.9592 180° South 106 122 9,000 -120 Level Salt Lake Center
12:33AM 41.0331 -111.9589 185° South 110 127 8,800 -600 Descending Salt Lake Center
12:34AM 40.9950 -111.9633 182° South 127 146 7,900 -780 Descending Salt Lake Center
12:35AM 40.9653 -111.9650 178° South 108 124 7,300 -600 Descending Salt Lake Center
12:36AM 40.9350 -111.9639 179° South 111 128 6,700 -600 Descending Salt Lake Center
12:37AM 40.9044 -111.9631 181° South 107 123 6,100 -480 Descending Salt Lake Center
12:38AM 40.8708 -111.9639 181° South 98 113 5,700 -420 Descending Salt Lake Center
12:39AM 40.8511 -111.9642 180° South 91 105 5,300 -540 Descending Salt Lake Center
12:40AM 40.8253 -111.9644 177° South 90 104 4,800 -480 Descending Salt Lake Center
12:41AM 40.7983 -111.9625 177° South 70 81 4,200 -480 Descending Salt Lake Center